Time;durP1;ratioP1;P1;durP2;ratioP2;P2;SDS_P1;SDS_P2;PMS_P1;PMS_P2;Temp;Humidity;BMP_temperature;BMP_pressure;BME280_temperature;BME280_humidity;BME280_pressure;Samples;Min_cycle;Max_cycle;Signal;HPM_P1;HPM_P2
2023/01/14 00:09:39;;;;;;;10.40;8.70;;;;;;;3.54;100.00;99167.54;449479;1252;199121;-63
2023/01/14 00:19:45;;;;;;;11.80;7.60;;;;;;;3.55;100.00;99173.90;450216;1252;142683;-62
2023/01/14 00:29:51;;;;;;;9.60;6.10;;;;;;;3.68;100.00;99178.01;440305;1254;142444;-62
2023/01/14 00:39:56;;;;;;;8.70;6.70;;;;;;;3.76;100.00;99185.64;448985;1254;141928;-63
2023/01/14 00:50:03;;;;;;;8.70;6.70;;;;;;;3.97;100.00;99195.30;450238;1252;141624;-62
2023/01/14 01:00:16;;;;;;;9.70;6.20;;;;;;;4.13;100.00;99198.24;450379;1252;143493;-63
2023/01/14 01:10:22;;;;;;;7.80;5.80;;;;;;;4.23;100.00;99207.55;449810;1252;142474;-63
2023/01/14 01:20:28;;;;;;;7.30;5.40;;;;;;;4.30;100.00;99208.08;450258;1252;145861;-63
2023/01/14 01:30:35;;;;;;;7.10;3.90;;;;;;;4.35;100.00;99212.89;447886;1255;142826;-62
2023/01/14 01:40:40;;;;;;;6.30;3.50;;;;;;;4.33;100.00;99222.19;443197;1252;141215;-62
2023/01/14 01:50:50;;;;;;;6.00;3.80;;;;;;;4.31;100.00;99233.17;450277;1250;142408;-62
2023/01/14 02:00:56;;;;;;;3.70;3.30;;;;;;;4.32;100.00;99242.13;449510;1253;198777;-63
2023/01/14 02:11:22;;;;;;;5.90;3.10;;;;;;;4.36;100.00;99243.91;438958;1252;142491;-62
2023/01/14 02:21:34;;;;;;;6.40;4.40;;;;;;;4.38;100.00;99248.99;445969;1252;142913;-63
2023/01/14 02:31:47;;;;;;;3.50;2.90;;;;;;;4.43;100.00;99247.02;436429;1252;141551;-62
2023/01/14 02:52:26;;;;;;;5.40;3.10;;;;;;;4.42;100.00;99262.88;437247;1252;210987;-64
2023/01/14 03:02:52;;;;;;;5.40;2.70;;;;;;;4.36;100.00;99273.18;437884;1253;143048;-62
2023/01/14 03:13:09;;;;;;;4.50;3.10;;;;;;;4.25;99.90;99272.44;436714;1252;146247;-62
2023/01/14 03:23:20;;;;;;;3.70;3.10;;;;;;;4.16;99.95;99280.59;435035;1257;141869;-63
2023/01/14 03:33:30;;;;;;;4.40;2.20;;;;;;;4.11;99.93;99288.27;433351;1256;159052;-62
2023/01/14 03:43:43;;;;;;;3.70;2.20;;;;;;;4.11;99.74;99299.02;439210;1256;145615;-61
2023/01/14 03:53:57;;;;;;;5.70;2.20;;;;;;;4.13;99.56;99300.83;436008;1255;145059;-62
2023/01/14 04:04:03;;;;;;;5.10;2.50;;;;;;;4.15;99.50;99313.05;434950;1256;188772;-63
2023/01/14 04:24:33;;;;;;;4.70;2.80;;;;;;;4.16;99.19;99329.98;433971;1257;141465;-63
2023/01/14 04:34:39;;;;;;;3.60;2.70;;;;;;;4.14;99.01;99337.17;434189;1257;141989;-62
2023/01/14 04:44:47;;;;;;;3.20;2.70;;;;;;;4.11;99.07;99343.90;434210;1253;145492;-63
2023/01/14 04:54:53;;;;;;;5.00;3.20;;;;;;;4.07;99.18;99354.79;434996;1254;199191;-62
2023/01/14 05:05:00;;;;;;;5.60;3.20;;;;;;;4.04;99.27;99369.11;432754;1254;142678;-63
2023/01/14 05:15:07;;;;;;;5.70;3.00;;;;;;;3.96;99.23;99371.52;440129;1253;144452;-63
2023/01/14 05:25:13;;;;;;;5.20;3.10;;;;;;;3.89;99.05;99375.22;436372;1257;188068;-63
2023/01/14 05:35:19;;;;;;;6.50;3.30;;;;;;;3.81;99.06;99384.75;438880;1254;142052;-63
2023/01/14 05:45:41;;;;;;;3.90;2.60;;;;;;;3.61;99.05;99397.62;441309;1254;141595;-64
2023/01/14 05:55:47;;;;;;;3.50;3.20;;;;;;;3.32;98.71;99410.63;434816;1255;142140;-64
2023/01/14 06:16:17;;;;;;;4.90;3.60;;;;;;;3.04;99.75;99434.30;437548;1254;214467;-63
2023/01/14 06:26:27;;;;;;;4.50;2.60;;;;;;;3.18;99.93;99446.77;443087;1253;145159;-63
2023/01/14 06:36:36;;;;;;;5.40;3.10;;;;;;;3.31;99.89;99454.27;445318;1254;142054;-63
2023/01/14 06:46:42;;;;;;;4.10;2.50;;;;;;;3.43;99.73;99459.37;447976;1254;142297;-63
2023/01/14 06:56:48;;;;;;;3.10;2.70;;;;;;;3.53;99.71;99456.61;442544;1253;140850;-64
2023/01/14 07:06:54;;;;;;;4.60;2.60;;;;;;;3.57;99.56;99465.98;437713;1254;141986;-64
2023/01/14 07:17:01;;;;;;;6.10;2.70;;;;;;;3.62;99.59;99479.44;435145;1252;143249;-62
2023/01/14 07:27:05;;;;;;;;;;;;;;;3.68;99.32;99480.79;437846;1253;140977;-63
2023/01/14 07:37:11;;;;;;;5.30;2.90;;;;;;;3.75;99.13;99484.02;438120;1253;132170;-63
2023/01/14 07:47:17;;;;;;;4.60;2.80;;;;;;;3.82;99.04;99492.73;433666;1255;141414;-63
2023/01/14 07:57:23;;;;;;;5.00;3.60;;;;;;;3.88;98.83;99504.99;434174;1256;143415;-63
2023/01/14 08:07:29;;;;;;;6.80;3.80;;;;;;;3.98;98.65;99529.39;440266;1253;142382;-63
2023/01/14 08:17:34;;;;;;;6.50;4.70;;;;;;;4.18;98.64;99526.38;436915;1253;142031;-62
2023/01/14 08:27:40;;;;;;;6.60;3.70;;;;;;;4.46;98.44;99535.02;437404;1253;142718;-62
2023/01/14 08:37:47;;;;;;;8.90;3.40;;;;;;;4.58;97.94;99547.70;438663;1254;142249;-63
2023/01/14 08:47:53;;;;;;;9.70;4.60;;;;;;;4.68;97.63;99548.86;447311;1252;142115;-64
2023/01/14 08:57:59;;;;;;;5.70;4.10;;;;;;;4.79;97.46;99558.29;433351;1254;147188;-64
2023/01/14 09:18:29;;;;;;;4.60;3.00;;;;;;;5.22;96.81;99578.95;434867;1253;144735;-64
2023/01/14 09:28:35;;;;;;;4.10;2.40;;;;;;;5.36;96.45;99583.76;432867;1254;148018;-63
2023/01/14 09:38:40;;;;;;;6.20;3.80;;;;;;;5.46;95.90;99575.69;442004;1253;145665;-63
2023/01/14 09:48:47;;;;;;;5.40;3.20;;;;;;;5.62;95.46;99570.81;442701;1253;145093;-62
2023/01/14 09:58:58;;;;;;;4.70;3.20;;;;;;;5.79;95.24;99569.89;449603;1253;142121;-63
2023/01/14 10:09:07;;;;;;;4.60;3.00;;;;;;;6.06;94.86;99563.85;448562;1253;142028;-63
2023/01/14 10:19:20;;;;;;;5.50;3.60;;;;;;;6.31;93.95;99559.63;449276;1252;142536;-63
2023/01/14 10:29:28;;;;;;;6.30;3.60;;;;;;;6.46;93.40;99557.00;450036;1252;142026;-62
2023/01/14 10:39:33;;;;;;;5.60;3.00;;;;;;;6.57;93.05;99565.69;446578;1252;197971;-63
2023/01/14 10:49:43;;;;;;;9.80;3.60;;;;;;;6.74;92.33;99557.77;445548;1251;141010;-63
2023/01/14 10:59:53;;;;;;;6.20;3.10;;;;;;;7.03;92.00;99558.77;450009;1251;142164;-64
2023/01/14 11:10:01;;;;;;;4.20;2.60;;;;;;;7.16;91.02;99552.93;449203;1251;142382;-63
2023/01/14 11:20:23;;;;;;;5.00;2.60;;;;;;;7.44;90.58;99552.40;449782;1252;141211;-65
2023/01/14 11:30:29;;;;;;;5.90;3.30;;;;;;;7.58;89.46;99543.64;449325;1251;142516;-63
2023/01/14 11:51:03;;;;;;;5.50;3.40;;;;;;;7.90;87.77;99521.05;449726;1250;142014;-61
2023/01/14 12:01:22;;;;;;;10.30;3.40;;;;;;;7.56;87.24;99508.02;440306;1252;141727;-63
2023/01/14 12:11:33;;;;;;;5.40;2.20;;;;;;;7.31;87.76;99497.66;450063;1252;145862;-66
2023/01/14 12:21:44;;;;;;;4.50;2.70;;;;;;;7.14;87.53;99483.91;449286;1252;141075;-63
2023/01/14 12:31:54;;;;;;;7.60;2.60;;;;;;;6.99;86.92;99478.23;450105;1252;143919;-62
2023/01/14 12:52:31;;;;;;;4.40;3.30;;;;;;;6.78;86.29;99472.67;447983;1252;199205;-62
2023/01/14 13:02:41;;;;;;;4.30;2.90;;;;;;;6.73;86.60;99465.77;445821;1252;141884;-63
2023/01/14 13:12:51;;;;;;;5.90;2.90;;;;;;;6.65;86.27;99469.81;445610;1252;142244;-65
2023/01/14 13:22:59;;;;;;;5.30;3.20;;;;;;;6.57;86.50;99466.90;450188;1252;141680;-63
2023/01/14 13:33:19;;;;;;;4.80;2.70;;;;;;;6.48;86.47;99463.51;450101;1252;142144;-64
2023/01/14 13:43:27;;;;;;;5.20;3.50;;;;;;;6.26;86.52;99462.14;443219;1252;198817;-64
2023/01/14 13:53:34;;;;;;;5.90;3.10;;;;;;;6.09;86.95;99459.63;450343;1252;143053;-63
2023/01/14 14:03:40;;;;;;;5.80;3.00;;;;;;;6.00;87.26;99455.02;449530;1252;161859;-63
2023/01/14 14:14:06;;;;;;;8.00;4.00;;;;;;;5.94;87.40;99453.88;443959;1251;199391;-64
2023/01/14 14:24:23;;;;;;;7.80;3.90;;;;;;;5.84;87.40;99440.96;450353;1252;142911;-64
2023/01/14 14:34:29;;;;;;;6.40;4.40;;;;;;;5.68;87.53;99433.02;450025;1252;198134;-63
2023/01/14 14:44:35;;;;;;;6.30;4.10;;;;;;;5.52;87.88;99430.60;446393;1252;142264;-63
2023/01/14 14:54:42;;;;;;;7.20;4.20;;;;;;;5.25;87.98;99428.00;449357;1252;146182;-63
2023/01/14 15:04:50;;;;;;;9.50;5.50;;;;;;;4.94;88.24;99416.67;450313;1252;142696;-63
2023/01/14 15:15:01;;;;;;;18.10;10.70;;;;;;;4.64;88.53;99410.81;450173;1252;142253;-64
2023/01/14 15:25:15;;;;;;;20.40;14.40;;;;;;;4.40;88.94;99416.16;449505;1252;142102;-64
2023/01/14 15:35:27;;;;;;;19.70;12.50;;;;;;;4.29;89.46;99408.98;450390;1252;142351;-63
2023/01/14 15:45:33;;;;;;;24.50;14.20;;;;;;;4.18;89.68;99391.58;444917;1253;145098;-63
2023/01/14 15:55:40;;;;;;;19.00;13.50;;;;;;;4.00;89.78;99382.09;450281;1252;142171;-63
2023/01/14 16:05:46;;;;;;;20.20;13.00;;;;;;;3.78;90.38;99373.60;450260;1252;142355;-64
2023/01/14 16:15:54;;;;;;;21.40;12.20;;;;;;;3.56;90.71;99361.79;449642;1252;142266;-64
2023/01/14 16:26:02;;;;;;;15.90;10.90;;;;;;;3.40;91.18;99348.94;450352;1252;143405;-63
2023/01/14 16:36:12;;;;;;;12.80;8.60;;;;;;;3.30;91.64;99323.70;450387;1252;143119;-63
2023/01/14 16:46:19;;;;;;;14.90;9.40;;;;;;;3.30;92.22;99300.16;446609;1252;210571;-63
2023/01/14 16:56:25;;;;;;;16.50;10.20;;;;;;;3.30;92.24;99292.38;432981;1252;141736;-63
2023/01/14 17:06:30;;;;;;;13.40;9.10;;;;;;;3.17;92.37;99284.89;443182;1250;143879;-63
2023/01/14 17:16:36;;;;;;;18.30;11.30;;;;;;;3.03;92.81;99278.17;450475;1252;181648;-64
2023/01/14 17:26:42;;;;;;;15.00;9.80;;;;;;;2.96;93.04;99262.86;450396;1252;141937;-64
2023/01/14 17:36:48;;;;;;;19.50;13.00;;;;;;;2.92;93.06;99261.64;446657;1252;142272;-63
2023/01/14 17:46:53;;;;;;;19.80;10.50;;;;;;;2.91;93.34;99261.48;437192;1253;142119;-63
2023/01/14 17:56:59;;;;;;;16.40;10.70;;;;;;;2.92;93.75;99247.09;450339;1252;142632;-64
2023/01/14 18:07:05;;;;;;;13.70;8.70;;;;;;;2.96;93.78;99228.64;449657;1252;142147;-63
2023/01/14 18:17:11;;;;;;;16.50;8.50;;;;;;;3.08;93.79;99211.94;450417;1252;142425;-64
2023/01/14 18:27:17;;;;;;;16.70;9.80;;;;;;;3.18;93.45;99195.61;449610;1252;144722;-63
2023/01/14 18:37:22;;;;;;;19.40;11.30;;;;;;;3.32;93.90;99178.44;450359;1252;141528;-63
2023/01/14 18:47:29;;;;;;;14.00;9.00;;;;;;;3.44;93.81;99167.23;447908;1252;143930;-63
2023/01/14 18:57:37;;;;;;;17.70;10.00;;;;;;;3.52;93.53;99156.52;448485;1252;142357;-64
2023/01/14 19:07:46;;;;;;;15.30;10.10;;;;;;;3.62;93.39;99138.95;450444;1252;143474;-66
2023/01/14 19:17:52;;;;;;;12.90;7.10;;;;;;;3.71;92.68;99118.33;450423;1252;143229;-64
2023/01/14 19:27:58;;;;;;;12.20;6.30;;;;;;;3.83;92.13;99094.61;437115;1253;143547;-64
2023/01/14 19:38:04;;;;;;;10.30;6.00;;;;;;;3.91;91.33;99075.73;438286;1252;141887;-63
2023/01/14 19:48:10;;;;;;;14.20;8.50;;;;;;;3.92;90.95;99057.48;443310;1252;141799;-63
2023/01/14 19:58:16;;;;;;;12.40;7.00;;;;;;;3.93;90.56;99036.33;449601;1252;142872;-63
2023/01/14 20:08:23;;;;;;;13.60;6.50;;;;;;;3.98;90.31;99026.59;445311;1252;142216;-63
2023/01/14 20:18:33;;;;;;;10.60;5.80;;;;;;;4.06;89.46;99013.23;449377;1253;142332;-63
2023/01/14 20:28:39;;;;;;;9.40;5.60;;;;;;;4.11;89.34;98999.34;438056;1251;142550;-64
2023/01/14 20:38:45;;;;;;;9.50;5.70;;;;;;;4.16;88.87;98990.43;447814;1252;143001;-63
2023/01/14 20:48:51;;;;;;;9.80;5.90;;;;;;;4.20;88.68;98984.71;449150;1252;143549;-63
2023/01/14 21:09:20;;;;;;;10.50;6.00;;;;;;;4.22;88.17;98955.31;449214;1252;163771;-63
2023/01/14 21:29:53;;;;;;;9.60;6.00;;;;;;;4.19;87.81;98939.70;440336;1254;141319;-64
2023/01/14 21:39:59;;;;;;;9.40;5.90;;;;;;;4.17;87.53;98934.08;449505;1253;142205;-63
2023/01/14 21:50:06;;;;;;;10.00;5.20;;;;;;;4.19;87.24;98922.89;450227;1254;142212;-63
2023/01/14 22:00:13;;;;;;;13.70;5.70;;;;;;;4.22;87.05;98910.63;450158;1253;141952;-63
2023/01/14 22:10:20;;;;;;;10.30;5.00;;;;;;;4.27;86.71;98892.52;437585;1254;198137;-64
2023/01/14 22:20:26;;;;;;;8.90;5.10;;;;;;;4.31;86.24;98865.13;441351;1254;142932;-63
2023/01/14 22:30:32;;;;;;;10.90;5.40;;;;;;;4.33;86.12;98858.62;448974;1254;143047;-63
2023/01/14 22:40:38;;;;;;;7.40;3.90;;;;;;;4.37;85.72;98837.12;449781;1253;143801;-63
2023/01/14 22:50:46;;;;;;;8.40;4.90;;;;;;;4.42;85.33;98806.71;448096;1255;198005;-64
2023/01/14 23:00:52;;;;;;;8.60;4.10;;;;;;;4.43;84.83;98791.21;448997;1254;142398;-62
2023/01/14 23:31:40;;;;;;;7.20;5.00;;;;;;;4.07;84.76;98752.86;449944;1253;143194;-63
2023/01/14 23:41:46;;;;;;;9.20;4.80;;;;;;;4.02;84.55;98732.81;436999;1253;142175;-62
2023/01/14 23:52:12;;;;;;;6.80;4.60;;;;;;;4.03;84.46;98714.43;449344;1253;142070;-62
